sensor_id;sensor_type;location;lat;lon;timestamp;temperature;humidity
12907;DHT22;6521;50.498;8.474;2023-08-31T00:00:01;12.08;92.85
12907;DHT22;6521;50.498;8.474;2023-08-31T00:02:32;12.07;92.83
12907;DHT22;6521;50.498;8.474;2023-08-31T00:05:02;12.06;92.81
12907;DHT22;6521;50.498;8.474;2023-08-31T00:07:36;12.03;92.73
12907;DHT22;6521;50.498;8.474;2023-08-31T00:10:07;12.06;92.79
12907;DHT22;6521;50.498;8.474;2023-08-31T00:12:42;12.00;92.77
12907;DHT22;6521;50.498;8.474;2023-08-31T00:15:14;12.00;92.85
12907;DHT22;6521;50.498;8.474;2023-08-31T00:17:45;11.96;92.83
12907;DHT22;6521;50.498;8.474;2023-08-31T00:20:16;11.94;92.76
12907;DHT22;6521;50.498;8.474;2023-08-31T00:22:48;11.90;92.85
12907;DHT22;6521;50.498;8.474;2023-08-31T00:25:19;11.87;92.85
12907;DHT22;6521;50.498;8.474;2023-08-31T00:27:49;11.83;92.87
12907;DHT22;6521;50.498;8.474;2023-08-31T00:30:23;11.79;92.94
12907;DHT22;6521;50.498;8.474;2023-08-31T00:32:58;11.79;93.02
12907;DHT22;6521;50.498;8.474;2023-08-31T00:35:33;11.79;93.04
12907;DHT22;6521;50.498;8.474;2023-08-31T00:38:06;11.77;92.93
12907;DHT22;6521;50.498;8.474;2023-08-31T00:40:43;11.72;92.94
12907;DHT22;6521;50.498;8.474;2023-08-31T00:43:19;11.73;93.10
12907;DHT22;6521;50.498;8.474;2023-08-31T00:45:52;11.73;93.07
12907;DHT22;6521;50.498;8.474;2023-08-31T00:48:27;11.72;93.00
12907;DHT22;6521;50.498;8.474;2023-08-31T00:50:58;11.72;93.07
12907;DHT22;6521;50.498;8.474;2023-08-31T00:53:31;11.70;93.03
12907;DHT22;6521;50.498;8.474;2023-08-31T00:56:04;11.69;92.98
12907;DHT22;6521;50.498;8.474;2023-08-31T00:58:37;11.66;93.01
12907;DHT22;6521;50.498;8.474;2023-08-31T01:02:02;11.63;93.02
12907;DHT22;6521;50.498;8.474;2023-08-31T01:04:18;11.56;93.04
12907;DHT22;6521;50.498;8.474;2023-08-31T01:07:12;11.58;93.11
12907;DHT22;6521;50.498;8.474;2023-08-31T01:09:57;11.56;93.13
12907;DHT22;6521;50.498;8.474;2023-08-31T01:15:11;11.58;93.25
12907;DHT22;6521;50.498;8.474;2023-08-31T01:17:47;11.61;93.38
12907;DHT22;6521;50.498;8.474;2023-08-31T01:20:32;11.62;93.27
12907;DHT22;6521;50.498;8.474;2023-08-31T01:23:09;11.63;93.23
12907;DHT22;6521;50.498;8.474;2023-08-31T01:25:41;11.58;93.27
12907;DHT22;6521;50.498;8.474;2023-08-31T01:28:13;11.61;93.32
12907;DHT22;6521;50.498;8.474;2023-08-31T01:30:44;11.61;93.29
12907;DHT22;6521;50.498;8.474;2023-08-31T01:33:15;11.63;93.25
12907;DHT22;6521;50.498;8.474;2023-08-31T01:35:50;11.58;93.33
12907;DHT22;6521;50.498;8.474;2023-08-31T01:38:27;11.58;93.29
12907;DHT22;6521;50.498;8.474;2023-08-31T01:41:10;11.56;93.17
12907;DHT22;6521;50.498;8.474;2023-08-31T01:43:44;11.54;93.13
12907;DHT22;6521;50.498;8.474;2023-08-31T01:46:16;11.46;93.11
12907;DHT22;6521;50.498;8.474;2023-08-31T01:48:47;11.40;93.15
12907;DHT22;6521;50.498;8.474;2023-08-31T01:51:19;11.36;93.19
12907;DHT22;6521;50.498;8.474;2023-08-31T01:53:50;11.36;93.35
12907;DHT22;6521;50.498;8.474;2023-08-31T01:56:22;11.39;93.27
12907;DHT22;6521;50.498;8.474;2023-08-31T01:58:52;11.34;93.19
12907;DHT22;6521;50.498;8.474;2023-08-31T02:01:23;11.29;93.22
12907;DHT22;6521;50.498;8.474;2023-08-31T02:03:55;11.25;93.17
12907;DHT22;6521;50.498;8.474;2023-08-31T02:06:27;11.22;93.12
12907;DHT22;6521;50.498;8.474;2023-08-31T02:08:58;11.19;93.17
12907;DHT22;6521;50.498;8.474;2023-08-31T02:11:31;11.15;93.21
12907;DHT22;6521;50.498;8.474;2023-08-31T02:14:02;11.11;93.11
12907;DHT22;6521;50.498;8.474;2023-08-31T02:16:34;11.07;93.06
12907;DHT22;6521;50.498;8.474;2023-08-31T02:19:08;11.05;93.26
12907;DHT22;6521;50.498;8.474;2023-08-31T02:21:47;11.01;93.37
12907;DHT22;6521;50.498;8.474;2023-08-31T02:24:19;11.00;93.46
12907;DHT22;6521;50.498;8.474;2023-08-31T02:26:51;11.01;93.46
12907;DHT22;6521;50.498;8.474;2023-08-31T02:29:22;11.05;93.51
12907;DHT22;6521;50.498;8.474;2023-08-31T02:31:53;11.07;93.62
12907;DHT22;6521;50.498;8.474;2023-08-31T02:34:23;11.11;93.62
12907;DHT22;6521;50.498;8.474;2023-08-31T02:36:54;11.14;93.53
12907;DHT22;6521;50.498;8.474;2023-08-31T02:39:25;11.14;93.42
12907;DHT22;6521;50.498;8.474;2023-08-31T02:41:55;11.14;93.62
12907;DHT22;6521;50.498;8.474;2023-08-31T02:44:26;11.15;93.53
12907;DHT22;6521;50.498;8.474;2023-08-31T02:46:57;11.12;93.58
12907;DHT22;6521;50.498;8.474;2023-08-31T02:49:28;11.08;93.62
12907;DHT22;6521;50.498;8.474;2023-08-31T02:52:00;11.11;93.70
12907;DHT22;6521;50.498;8.474;2023-08-31T02:54:31;11.10;93.93
12907;DHT22;6521;50.498;8.474;2023-08-31T02:57:02;11.12;93.91
12907;DHT22;6521;50.498;8.474;2023-08-31T02:59:33;11.15;93.94
12907;DHT22;6521;50.498;8.474;2023-08-31T03:02:06;11.18;93.90
12907;DHT22;6521;50.498;8.474;2023-08-31T03:04:37;11.22;93.95
12907;DHT22;6521;50.498;8.474;2023-08-31T03:07:07;11.24;93.90
12907;DHT22;6521;50.498;8.474;2023-08-31T03:09:38;11.25;93.90
12907;DHT22;6521;50.498;8.474;2023-08-31T03:12:09;11.26;93.88
12907;DHT22;6521;50.498;8.474;2023-08-31T03:14:40;11.28;93.76
12907;DHT22;6521;50.498;8.474;2023-08-31T03:17:10;11.22;93.77
12907;DHT22;6521;50.498;8.474;2023-08-31T03:19:41;11.21;93.74
12907;DHT22;6521;50.498;8.474;2023-08-31T03:22:12;11.21;93.84
12907;DHT22;6521;50.498;8.474;2023-08-31T03:24:43;11.18;93.80
12907;DHT22;6521;50.498;8.474;2023-08-31T03:27:13;11.15;93.79
12907;DHT22;6521;50.498;8.474;2023-08-31T03:29:46;11.14;93.80
12907;DHT22;6521;50.498;8.474;2023-08-31T03:32:18;11.15;93.80
12907;DHT22;6521;50.498;8.474;2023-08-31T03:34:49;11.10;93.78
12907;DHT22;6521;50.498;8.474;2023-08-31T03:37:20;11.11;93.75
12907;DHT22;6521;50.498;8.474;2023-08-31T03:39:52;11.05;93.73
12907;DHT22;6521;50.498;8.474;2023-08-31T03:42:22;11.01;93.76
12907;DHT22;6521;50.498;8.474;2023-08-31T03:44:54;11.01;93.78
12907;DHT22;6521;50.498;8.474;2023-08-31T03:47:25;11.01;93.79
12907;DHT22;6521;50.498;8.474;2023-08-31T03:49:56;11.00;93.82
12907;DHT22;6521;50.498;8.474;2023-08-31T03:52:26;11.01;93.83
12907;DHT22;6521;50.498;8.474;2023-08-31T03:54:57;11.03;93.74
12907;DHT22;6521;50.498;8.474;2023-08-31T03:57:28;11.00;93.72
12907;DHT22;6521;50.498;8.474;2023-08-31T04:00:04;10.97;93.75
12907;DHT22;6521;50.498;8.474;2023-08-31T04:02:44;10.90;93.73
12907;DHT22;6521;50.498;8.474;2023-08-31T04:05:17;10.88;93.71
12907;DHT22;6521;50.498;8.474;2023-08-31T04:07:48;10.88;93.80
12907;DHT22;6521;50.498;8.474;2023-08-31T04:10:19;10.87;93.78
12907;DHT22;6521;50.498;8.474;2023-08-31T04:12:49;10.85;93.81
12907;DHT22;6521;50.498;8.474;2023-08-31T04:15:20;10.85;93.87
12907;DHT22;6521;50.498;8.474;2023-08-31T04:17:51;10.87;93.93
12907;DHT22;6521;50.498;8.474;2023-08-31T04:20:22;10.93;93.99
12907;DHT22;6521;50.498;8.474;2023-08-31T04:22:53;10.97;94.07
12907;DHT22;6521;50.498;8.474;2023-08-31T04:25:23;11.01;94.08
12907;DHT22;6521;50.498;8.474;2023-08-31T04:27:54;11.03;94.12
12907;DHT22;6521;50.498;8.474;2023-08-31T04:30:25;11.03;94.11
12907;DHT22;6521;50.498;8.474;2023-08-31T04:32:57;11.05;94.02
12907;DHT22;6521;50.498;8.474;2023-08-31T04:35:27;11.08;93.95
12907;DHT22;6521;50.498;8.474;2023-08-31T04:37:58;11.07;94.05
12907;DHT22;6521;50.498;8.474;2023-08-31T04:40:29;11.08;94.00
12907;DHT22;6521;50.498;8.474;2023-08-31T04:43:00;11.05;93.99
12907;DHT22;6521;50.498;8.474;2023-08-31T04:45:30;11.05;93.98
12907;DHT22;6521;50.498;8.474;2023-08-31T04:48:01;11.05;94.04
12907;DHT22;6521;50.498;8.474;2023-08-31T04:50:31;11.05;94.04
12907;DHT22;6521;50.498;8.474;2023-08-31T04:53:02;11.04;94.06
12907;DHT22;6521;50.498;8.474;2023-08-31T04:55:35;11.04;94.06
12907;DHT22;6521;50.498;8.474;2023-08-31T04:58:06;11.07;94.06
12907;DHT22;6521;50.498;8.474;2023-08-31T05:00:36;11.05;94.00
12907;DHT22;6521;50.498;8.474;2023-08-31T05:03:10;11.03;94.04
12907;DHT22;6521;50.498;8.474;2023-08-31T05:05:40;11.05;93.98
12907;DHT22;6521;50.498;8.474;2023-08-31T05:08:14;11.04;93.95
12907;DHT22;6521;50.498;8.474;2023-08-31T05:10:45;11.00;93.96
12907;DHT22;6521;50.498;8.474;2023-08-31T05:13:16;11.01;94.06
12907;DHT22;6521;50.498;8.474;2023-08-31T05:15:47;11.05;93.96
12907;DHT22;6521;50.498;8.474;2023-08-31T05:18:18;11.03;93.95
12907;DHT22;6521;50.498;8.474;2023-08-31T05:20:48;11.04;93.96
12907;DHT22;6521;50.498;8.474;2023-08-31T05:23:19;11.03;93.97
12907;DHT22;6521;50.498;8.474;2023-08-31T05:25:52;11.08;93.89
12907;DHT22;6521;50.498;8.474;2023-08-31T05:28:25;11.05;93.87
12907;DHT22;6521;50.498;8.474;2023-08-31T05:30:56;11.01;93.77
12907;DHT22;6521;50.498;8.474;2023-08-31T05:33:30;11.03;93.78
12907;DHT22;6521;50.498;8.474;2023-08-31T05:36:04;11.01;93.78
12907;DHT22;6521;50.498;8.474;2023-08-31T05:38:35;11.00;93.91
12907;DHT22;6521;50.498;8.474;2023-08-31T05:41:08;11.03;94.00
12907;DHT22;6521;50.498;8.474;2023-08-31T05:43:39;11.10;94.02
12907;DHT22;6521;50.498;8.474;2023-08-31T05:46:16;11.14;94.11
12907;DHT22;6521;50.498;8.474;2023-08-31T05:48:49;11.21;94.05
12907;DHT22;6521;50.498;8.474;2023-08-31T05:51:20;11.26;94.03
12907;DHT22;6521;50.498;8.474;2023-08-31T05:53:51;11.31;93.81
12907;DHT22;6521;50.498;8.474;2023-08-31T05:56:23;11.32;93.77
12907;DHT22;6521;50.498;8.474;2023-08-31T05:58:55;11.34;93.87
12907;DHT22;6521;50.498;8.474;2023-08-31T06:01:26;11.40;93.90
12907;DHT22;6521;50.498;8.474;2023-08-31T06:03:56;11.47;93.93
12907;DHT22;6521;50.498;8.474;2023-08-31T06:06:27;11.54;93.74
12907;DHT22;6521;50.498;8.474;2023-08-31T06:08:58;11.65;93.81
12907;DHT22;6521;50.498;8.474;2023-08-31T06:11:28;11.69;93.65
12907;DHT22;6521;50.498;8.474;2023-08-31T06:13:59;11.82;93.35
12907;DHT22;6521;50.498;8.474;2023-08-31T06:16:31;11.86;92.93
12907;DHT22;6521;50.498;8.474;2023-08-31T06:19:02;11.82;92.44
12907;DHT22;6521;50.498;8.474;2023-08-31T06:21:33;11.83;92.72
12907;DHT22;6521;50.498;8.474;2023-08-31T06:24:08;11.93;93.10
12907;DHT22;6521;50.498;8.474;2023-08-31T06:26:43;12.07;93.02
12907;DHT22;6521;50.498;8.474;2023-08-31T06:29:13;12.17;92.85
12907;DHT22;6521;50.498;8.474;2023-08-31T06:31:45;12.24;92.44
12907;DHT22;6521;50.498;8.474;2023-08-31T06:34:15;12.25;91.92
12907;DHT22;6521;50.498;8.474;2023-08-31T06:36:46;12.27;91.93
12907;DHT22;6521;50.498;8.474;2023-08-31T06:39:16;12.28;91.46
12907;DHT22;6521;50.498;8.474;2023-08-31T06:41:51;12.28;91.44
12907;DHT22;6521;50.498;8.474;2023-08-31T06:44:22;12.31;91.29
12907;DHT22;6521;50.498;8.474;2023-08-31T06:46:53;12.30;90.97
12907;DHT22;6521;50.498;8.474;2023-08-31T06:49:23;12.30;90.85
12907;DHT22;6521;50.498;8.474;2023-08-31T06:51:55;12.28;90.72
12907;DHT22;6521;50.498;8.474;2023-08-31T06:54:27;12.31;90.77
12907;DHT22;6521;50.498;8.474;2023-08-31T06:56:58;12.33;90.82
12907;DHT22;6521;50.498;8.474;2023-08-31T06:59:28;12.42;90.53
12907;DHT22;6521;50.498;8.474;2023-08-31T07:01:59;12.38;90.47
12907;DHT22;6521;50.498;8.474;2023-08-31T07:04:30;12.42;90.62
12907;DHT22;6521;50.498;8.474;2023-08-31T07:07:00;12.40;90.68
12907;DHT22;6521;50.498;8.474;2023-08-31T07:09:31;12.45;90.37
12907;DHT22;6521;50.498;8.474;2023-08-31T07:12:02;12.48;90.06
12907;DHT22;6521;50.498;8.474;2023-08-31T07:14:33;12.45;89.93
12907;DHT22;6521;50.498;8.474;2023-08-31T07:17:04;12.35;89.99
12907;DHT22;6521;50.498;8.474;2023-08-31T07:19:38;12.40;90.44
12907;DHT22;6521;50.498;8.474;2023-08-31T07:22:09;12.41;90.65
12907;DHT22;6521;50.498;8.474;2023-08-31T07:24:40;12.44;90.26
12907;DHT22;6521;50.498;8.474;2023-08-31T07:27:11;12.49;90.43
12907;DHT22;6521;50.498;8.474;2023-08-31T07:29:43;12.55;90.60
12907;DHT22;6521;50.498;8.474;2023-08-31T07:32:14;12.68;90.02
12907;DHT22;6521;50.498;8.474;2023-08-31T07:34:47;12.79;89.80
12907;DHT22;6521;50.498;8.474;2023-08-31T07:37:18;12.96;89.44
12907;DHT22;6521;50.498;8.474;2023-08-31T07:39:49;13.12;88.70
12907;DHT22;6521;50.498;8.474;2023-08-31T07:42:20;13.17;88.19
12907;DHT22;6521;50.498;8.474;2023-08-31T07:44:53;13.16;87.33
12907;DHT22;6521;50.498;8.474;2023-08-31T07:47:26;13.09;87.19
12907;DHT22;6521;50.498;8.474;2023-08-31T07:49:56;13.13;87.77
12907;DHT22;6521;50.498;8.474;2023-08-31T07:52:27;13.24;87.88
12907;DHT22;6521;50.498;8.474;2023-08-31T07:54:59;13.43;87.89
12907;DHT22;6521;50.498;8.474;2023-08-31T07:57:31;13.55;87.01
12907;DHT22;6521;50.498;8.474;2023-08-31T08:00:02;13.64;85.87
12907;DHT22;6521;50.498;8.474;2023-08-31T08:02:44;13.65;85.79
12907;DHT22;6521;50.498;8.474;2023-08-31T08:05:15;13.68;85.60
12907;DHT22;6521;50.498;8.474;2023-08-31T08:07:46;13.72;85.01
12907;DHT22;6521;50.498;8.474;2023-08-31T08:10:16;13.75;84.57
12907;DHT22;6521;50.498;8.474;2023-08-31T08:12:47;13.88;85.02
12907;DHT22;6521;50.498;8.474;2023-08-31T08:15:18;13.95;85.58
12907;DHT22;6521;50.498;8.474;2023-08-31T08:17:48;14.16;85.02
12907;DHT22;6521;50.498;8.474;2023-08-31T08:20:21;14.32;84.16
12907;DHT22;6521;50.498;8.474;2023-08-31T08:22:52;14.40;85.05
12907;DHT22;6521;50.498;8.474;2023-08-31T08:25:23;14.47;83.82
12907;DHT22;6521;50.498;8.474;2023-08-31T08:27:56;14.43;83.44
12907;DHT22;6521;50.498;8.474;2023-08-31T08:30:27;14.51;82.77
12907;DHT22;6521;50.498;8.474;2023-08-31T08:32:57;14.57;81.68
12907;DHT22;6521;50.498;8.474;2023-08-31T08:35:29;14.53;81.99
12907;DHT22;6521;50.498;8.474;2023-08-31T08:37:59;14.78;82.82
12907;DHT22;6521;50.498;8.474;2023-08-31T08:40:31;14.83;79.68
12907;DHT22;6521;50.498;8.474;2023-08-31T08:43:01;14.91;79.52
12907;DHT22;6521;50.498;8.474;2023-08-31T08:45:37;15.02;80.25
12907;DHT22;6521;50.498;8.474;2023-08-31T08:48:09;15.12;79.58
12907;DHT22;6521;50.498;8.474;2023-08-31T08:50:40;15.17;79.70
12907;DHT22;6521;50.498;8.474;2023-08-31T08:53:11;15.21;79.95
12907;DHT22;6521;50.498;8.474;2023-08-31T08:55:44;15.19;78.47
12907;DHT22;6521;50.498;8.474;2023-08-31T08:58:15;15.22;78.31
12907;DHT22;6521;50.498;8.474;2023-08-31T09:00:46;15.39;79.14
12907;DHT22;6521;50.498;8.474;2023-08-31T09:03:20;15.66;78.48
12907;DHT22;6521;50.498;8.474;2023-08-31T09:05:51;15.83;78.22
12907;DHT22;6521;50.498;8.474;2023-08-31T09:08:26;15.79;75.91
12907;DHT22;6521;50.498;8.474;2023-08-31T09:10:57;15.70;76.19
12907;DHT22;6521;50.498;8.474;2023-08-31T09:13:29;15.82;77.18
12907;DHT22;6521;50.498;8.474;2023-08-31T09:16:02;15.77;75.94
12907;DHT22;6521;50.498;8.474;2023-08-31T09:18:33;15.96;76.26
12907;DHT22;6521;50.498;8.474;2023-08-31T09:21:05;16.27;75.55
12907;DHT22;6521;50.498;8.474;2023-08-31T09:23:35;16.64;75.63
12907;DHT22;6521;50.498;8.474;2023-08-31T09:26:06;16.99;73.79
12907;DHT22;6521;50.498;8.474;2023-08-31T09:28:40;17.07;71.29
12907;DHT22;6521;50.498;8.474;2023-08-31T09:31:14;17.10;71.38
12907;DHT22;6521;50.498;8.474;2023-08-31T09:33:51;17.47;71.62
12907;DHT22;6521;50.498;8.474;2023-08-31T09:36:22;17.47;68.99
12907;DHT22;6521;50.498;8.474;2023-08-31T09:38:58;17.64;68.54
12907;DHT22;6521;50.498;8.474;2023-08-31T09:41:29;17.77;66.23
12907;DHT22;6521;50.498;8.474;2023-08-31T09:44:17;17.53;68.24
12907;DHT22;6521;50.498;8.474;2023-08-31T09:46:49;17.67;67.17
12907;DHT22;6521;50.498;8.474;2023-08-31T09:49:20;17.89;66.94
12907;DHT22;6521;50.498;8.474;2023-08-31T09:51:52;18.26;65.89
12907;DHT22;6521;50.498;8.474;2023-08-31T09:54:24;18.63;65.65
12907;DHT22;6521;50.498;8.474;2023-08-31T09:56:59;18.53;62.12
12907;DHT22;6521;50.498;8.474;2023-08-31T09:59:32;18.02;65.26
12907;DHT22;6521;50.498;8.474;2023-08-31T10:02:06;17.60;65.79
12907;DHT22;6521;50.498;8.474;2023-08-31T10:04:37;17.51;65.84
12907;DHT22;6521;50.498;8.474;2023-08-31T10:07:11;17.86;65.75
12907;DHT22;6521;50.498;8.474;2023-08-31T10:09:42;18.28;66.19
12907;DHT22;6521;50.498;8.474;2023-08-31T10:12:13;18.49;65.10
12907;DHT22;6521;50.498;8.474;2023-08-31T10:14:45;18.71;61.78
12907;DHT22;6521;50.498;8.474;2023-08-31T10:17:16;18.90;61.35
12907;DHT22;6521;50.498;8.474;2023-08-31T10:19:49;19.22;60.67
12907;DHT22;6521;50.498;8.474;2023-08-31T10:22:20;19.42;60.57
12907;DHT22;6521;50.498;8.474;2023-08-31T10:25:01;19.59;60.26
12907;DHT22;6521;50.498;8.474;2023-08-31T10:27:44;20.00;57.23
12907;DHT22;6521;50.498;8.474;2023-08-31T10:35:41;20.18;57.02
12907;DHT22;6521;50.498;8.474;2023-08-31T10:38:38;20.10;56.87
12907;DHT22;6521;50.498;8.474;2023-08-31T10:43:47;20.27;54.38
12907;DHT22;6521;50.498;8.474;2023-08-31T10:51:47;20.53;53.00
12907;DHT22;6521;50.498;8.474;2023-08-31T10:54:31;20.68;54.27
12907;DHT22;6521;50.498;8.474;2023-08-31T10:57:04;20.61;54.36
12907;DHT22;6521;50.498;8.474;2023-08-31T10:59:51;20.77;55.39
12907;DHT22;6521;50.498;8.474;2023-08-31T11:02:35;20.96;54.77
12907;DHT22;6521;50.498;8.474;2023-08-31T11:07:44;21.28;54.02
12907;DHT22;6521;50.498;8.474;2023-08-31T11:10:20;21.10;52.43
12907;DHT22;6521;50.498;8.474;2023-08-31T11:12:54;21.04;51.19
12907;DHT22;6521;50.498;8.474;2023-08-31T11:15:26;20.51;54.23
12907;DHT22;6521;50.498;8.474;2023-08-31T11:17:59;20.62;53.93
12907;DHT22;6521;50.498;8.474;2023-08-31T11:20:30;21.02;52.74
12907;DHT22;6521;50.498;8.474;2023-08-31T11:23:01;21.14;54.54
12907;DHT22;6521;50.498;8.474;2023-08-31T11:25:33;21.50;51.68
12907;DHT22;6521;50.498;8.474;2023-08-31T11:28:06;21.14;52.20
12907;DHT22;6521;50.498;8.474;2023-08-31T11:30:40;20.37;53.88
12907;DHT22;6521;50.498;8.474;2023-08-31T11:33:13;20.51;55.96
12907;DHT22;6521;50.498;8.474;2023-08-31T11:35:45;20.89;53.18
12907;DHT22;6521;50.498;8.474;2023-08-31T11:38:16;21.34;53.07
12907;DHT22;6521;50.498;8.474;2023-08-31T11:40:47;21.44;51.50
12907;DHT22;6521;50.498;8.474;2023-08-31T11:43:18;21.66;51.40
12907;DHT22;6521;50.498;8.474;2023-08-31T11:45:50;21.98;52.96
12907;DHT22;6521;50.498;8.474;2023-08-31T11:48:22;22.22;51.70
12907;DHT22;6521;50.498;8.474;2023-08-31T11:50:53;22.08;50.86
12907;DHT22;6521;50.498;8.474;2023-08-31T11:53:24;21.82;50.21
12907;DHT22;6521;50.498;8.474;2023-08-31T11:55:55;21.20;51.42
12907;DHT22;6521;50.498;8.474;2023-08-31T11:58:26;20.76;51.77
12907;DHT22;6521;50.498;8.474;2023-08-31T12:00:59;21.07;53.01
12907;DHT22;6521;50.498;8.474;2023-08-31T12:03:42;21.69;53.23
12907;DHT22;6521;50.498;8.474;2023-08-31T12:06:17;22.12;47.96
12907;DHT22;6521;50.498;8.474;2023-08-31T12:08:51;22.33;49.22
12907;DHT22;6521;50.498;8.474;2023-08-31T12:11:21;22.01;48.04
12907;DHT22;6521;50.498;8.474;2023-08-31T12:13:52;21.59;50.57
12907;DHT22;6521;50.498;8.474;2023-08-31T12:16:23;21.78;49.49
12907;DHT22;6521;50.498;8.474;2023-08-31T12:18:58;21.93;50.28
12907;DHT22;6521;50.498;8.474;2023-08-31T12:21:33;22.09;51.23
12907;DHT22;6521;50.498;8.474;2023-08-31T12:24:04;21.81;49.40
12907;DHT22;6521;50.498;8.474;2023-08-31T12:26:36;21.65;52.22
12907;DHT22;6521;50.498;8.474;2023-08-31T12:29:07;21.47;51.24
12907;DHT22;6521;50.498;8.474;2023-08-31T12:31:38;21.16;51.10
12907;DHT22;6521;50.498;8.474;2023-08-31T12:34:16;21.28;52.31
12907;DHT22;6521;50.498;8.474;2023-08-31T12:36:47;21.68;49.98
12907;DHT22;6521;50.498;8.474;2023-08-31T12:39:18;21.48;49.82
12907;DHT22;6521;50.498;8.474;2023-08-31T12:41:49;21.07;50.06
12907;DHT22;6521;50.498;8.474;2023-08-31T12:44:20;21.10;53.84
12907;DHT22;6521;50.498;8.474;2023-08-31T12:46:51;21.03;53.40
12907;DHT22;6521;50.498;8.474;2023-08-31T12:49:22;20.80;51.42
12907;DHT22;6521;50.498;8.474;2023-08-31T12:51:54;20.35;51.69
12907;DHT22;6521;50.498;8.474;2023-08-31T12:54:25;20.06;52.37
12907;DHT22;6521;50.498;8.474;2023-08-31T12:56:57;19.93;53.97
12907;DHT22;6521;50.498;8.474;2023-08-31T12:59:30;19.69;54.12
12907;DHT22;6521;50.498;8.474;2023-08-31T13:02:01;19.39;52.90
12907;DHT22;6521;50.498;8.474;2023-08-31T13:04:39;19.04;54.94
12907;DHT22;6521;50.498;8.474;2023-08-31T13:07:10;18.83;54.61
12907;DHT22;6521;50.498;8.474;2023-08-31T13:09:41;18.75;56.16
12907;DHT22;6521;50.498;8.474;2023-08-31T13:12:12;18.67;55.90
12907;DHT22;6521;50.498;8.474;2023-08-31T13:14:44;18.74;56.72
12907;DHT22;6521;50.498;8.474;2023-08-31T13:17:14;18.91;58.25
12907;DHT22;6521;50.498;8.474;2023-08-31T13:19:45;19.48;57.45
12907;DHT22;6521;50.498;8.474;2023-08-31T13:22:16;19.96;55.38
12907;DHT22;6521;50.498;8.474;2023-08-31T13:24:47;20.04;53.12
12907;DHT22;6521;50.498;8.474;2023-08-31T13:27:18;20.27;55.16
12907;DHT22;6521;50.498;8.474;2023-08-31T13:29:48;20.37;53.60
12907;DHT22;6521;50.498;8.474;2023-08-31T13:32:19;20.41;49.94
12907;DHT22;6521;50.498;8.474;2023-08-31T13:34:50;20.55;51.26
12907;DHT22;6521;50.498;8.474;2023-08-31T13:37:20;20.68;50.74
12907;DHT22;6521;50.498;8.474;2023-08-31T13:39:51;20.72;50.28
12907;DHT22;6521;50.498;8.474;2023-08-31T13:42:22;20.90;49.13
12907;DHT22;6521;50.498;8.474;2023-08-31T13:44:53;21.07;46.92
12907;DHT22;6521;50.498;8.474;2023-08-31T13:47:25;21.47;47.45
12907;DHT22;6521;50.498;8.474;2023-08-31T13:49:58;21.65;46.16
12907;DHT22;6521;50.498;8.474;2023-08-31T13:52:29;21.92;46.99
12907;DHT22;6521;50.498;8.474;2023-08-31T13:54:59;21.75;47.68
12907;DHT22;6521;50.498;8.474;2023-08-31T13:57:30;22.13;45.88
12907;DHT22;6521;50.498;8.474;2023-08-31T14:00:02;22.26;45.96
12907;DHT22;6521;50.498;8.474;2023-08-31T14:02:40;21.93;44.29
12907;DHT22;6521;50.498;8.474;2023-08-31T14:05:11;21.31;43.83
12907;DHT22;6521;50.498;8.474;2023-08-31T14:07:43;21.14;45.28
12907;DHT22;6521;50.498;8.474;2023-08-31T14:10:14;21.54;45.60
12907;DHT22;6521;50.498;8.474;2023-08-31T14:12:46;21.38;46.02
12907;DHT22;6521;50.498;8.474;2023-08-31T14:15:17;20.71;46.17
12907;DHT22;6521;50.498;8.474;2023-08-31T14:17:50;20.39;47.48
12907;DHT22;6521;50.498;8.474;2023-08-31T14:20:23;20.34;48.04
12907;DHT22;6521;50.498;8.474;2023-08-31T14:22:54;20.06;46.80
12907;DHT22;6521;50.498;8.474;2023-08-31T14:25:27;20.28;49.50
12907;DHT22;6521;50.498;8.474;2023-08-31T14:27:58;20.45;46.42
12907;DHT22;6521;50.498;8.474;2023-08-31T14:30:29;20.58;49.09
12907;DHT22;6521;50.498;8.474;2023-08-31T14:33:00;21.22;47.76
12907;DHT22;6521;50.498;8.474;2023-08-31T14:35:30;21.65;48.86
12907;DHT22;6521;50.498;8.474;2023-08-31T14:38:03;21.72;42.03
12907;DHT22;6521;50.498;8.474;2023-08-31T14:40:38;21.44;43.24
12907;DHT22;6521;50.498;8.474;2023-08-31T14:43:10;21.51;44.47
12907;DHT22;6521;50.498;8.474;2023-08-31T14:45:42;21.45;45.68
12907;DHT22;6521;50.498;8.474;2023-08-31T14:48:13;21.17;46.11
12907;DHT22;6521;50.498;8.474;2023-08-31T14:50:44;21.03;46.41
12907;DHT22;6521;50.498;8.474;2023-08-31T14:53:15;20.96;46.89
12907;DHT22;6521;50.498;8.474;2023-08-31T14:55:51;20.80;46.87
12907;DHT22;6521;50.498;8.474;2023-08-31T14:58:24;20.48;47.95
12907;DHT22;6521;50.498;8.474;2023-08-31T15:00:56;20.25;49.02
12907;DHT22;6521;50.498;8.474;2023-08-31T15:03:27;20.06;47.52
12907;DHT22;6521;50.498;8.474;2023-08-31T15:05:57;19.88;47.51
12907;DHT22;6521;50.498;8.474;2023-08-31T15:08:39;19.77;49.20
12907;DHT22;6521;50.498;8.474;2023-08-31T15:11:10;19.65;49.63
12907;DHT22;6521;50.498;8.474;2023-08-31T15:13:41;19.76;51.36
12907;DHT22;6521;50.498;8.474;2023-08-31T15:16:11;19.83;49.37
12907;DHT22;6521;50.498;8.474;2023-08-31T15:18:42;19.83;50.32
12907;DHT22;6521;50.498;8.474;2023-08-31T15:21:15;19.74;51.19
12907;DHT22;6521;50.498;8.474;2023-08-31T15:23:47;19.73;51.86
12907;DHT22;6521;50.498;8.474;2023-08-31T15:26:18;19.66;49.66
12907;DHT22;6521;50.498;8.474;2023-08-31T15:28:50;19.50;49.66
12907;DHT22;6521;50.498;8.474;2023-08-31T15:31:21;19.30;51.28
12907;DHT22;6521;50.498;8.474;2023-08-31T15:33:57;19.19;52.64
12907;DHT22;6521;50.498;8.474;2023-08-31T15:36:28;19.21;52.14
12907;DHT22;6521;50.498;8.474;2023-08-31T15:38:58;19.19;51.47
12907;DHT22;6521;50.498;8.474;2023-08-31T15:41:29;19.32;51.82
12907;DHT22;6521;50.498;8.474;2023-08-31T15:44:06;19.55;52.39
12907;DHT22;6521;50.498;8.474;2023-08-31T15:46:38;19.58;51.99
12907;DHT22;6521;50.498;8.474;2023-08-31T15:49:09;19.52;51.30
12907;DHT22;6521;50.498;8.474;2023-08-31T15:51:40;19.43;51.92
12907;DHT22;6521;50.498;8.474;2023-08-31T15:54:10;19.30;51.13
12907;DHT22;6521;50.498;8.474;2023-08-31T15:56:43;19.18;51.65
12907;DHT22;6521;50.498;8.474;2023-08-31T15:59:14;19.11;51.96
12907;DHT22;6521;50.498;8.474;2023-08-31T16:01:45;18.95;50.49
12907;DHT22;6521;50.498;8.474;2023-08-31T16:04:17;18.92;50.60
12907;DHT22;6521;50.498;8.474;2023-08-31T16:06:51;18.81;51.29
12907;DHT22;6521;50.498;8.474;2023-08-31T16:09:22;18.67;52.15
12907;DHT22;6521;50.498;8.474;2023-08-31T16:11:52;18.54;51.77
12907;DHT22;6521;50.498;8.474;2023-08-31T16:14:25;18.46;53.17
12907;DHT22;6521;50.498;8.474;2023-08-31T16:16:55;18.40;53.39
12907;DHT22;6521;50.498;8.474;2023-08-31T16:19:29;18.30;52.65
12907;DHT22;6521;50.498;8.474;2023-08-31T16:22:00;18.28;53.48
12907;DHT22;6521;50.498;8.474;2023-08-31T16:24:31;18.28;53.86
12907;DHT22;6521;50.498;8.474;2023-08-31T16:27:03;18.28;54.46
12907;DHT22;6521;50.498;8.474;2023-08-31T16:29:34;18.26;55.00
12907;DHT22;6521;50.498;8.474;2023-08-31T16:32:05;18.28;55.57
12907;DHT22;6521;50.498;8.474;2023-08-31T16:34:35;18.25;55.07